Dudley, Indiana
Current Conditions -  °F | °C
As of 1:23 PM on Thursday 29 Jan 2015 (Local Time) from KMIE Reporting Station
Haze Haze  
Wind Chill: 25°   Ceiling: 800
Heat Index: 36°   Visibility: 1.7mi
Dew Point: 33°   Wind: 20mph
Humidity: 89%   Direction: 280°W
Pressure: 29.82"   Gusts: 26mph
Location:  39.8307°N, 85.2704°W
Report Text: KMIE 291823Z 28017G23KT 1 3/4SM BR OVC008 02/01 A2982 RMK AO2 CIG 006V011 T00220006
Loading
Personal Weather Stations






























Interactive Weather Map New forecast layout! Learn more

10-Day Weather Forecast

Advertisements
Track Severe Weather on mobile